Etusivu
METAR-TAF:

METAR-TAF

Lentoasemat :

Kristiansandin lentoasema

Kristiansand, Norja

Leveyspiiri: 58-12N, Pituuspiiri: 008-05E, korkeus merenpinnasta: 1 m

Tämänhetkinen sää

Tämä raportti tehtiin 38 minuuttia sitten, kello 14.20 UTC
Tuuli 15 kn etelästä
Lämpötila 16°C
Kosteus 63%
Ilmanpaine 991 hPa
Näkyvyys 10 km tai enemmän
Muutamia pilviä 3200 ft:n korkeudessa

METAR: ENCN 061420Z 19015KT 9999 FEW032 16/09 Q0991

Aika: 16:58 (14:58 UTC)

Sääennuste

Tämä raportti tehtiin 58 minuuttia sitten, kello 14.00 UTC
Ennuste voimassa 06. päivästä klo 15 UTC - 06. päivään klo 21 UTC
Tuuli 12 kn etelästä/lounaasta
Näkyvyys 10 km tai enemmän
Hajanaisia pilviä 3000 ft:n korkeudessa
Todennäköisyys 30% :
Ajoittain
06. päivästä klo 15 UTC - 06. päivään klo 21 UTC
Muutamia pilviä 2500 ft:n korkeudessa, Cumulonimbus.
Hajonneita pilviä 3000 ft:n korkeudessa
vesikuuroja

TAF: ENCN 061400Z 0615/0621 20012KT 9999 SCT030 PROB30 TEMPO 0615/0621 SHRA FEW025CB BKN030

Säähavainnot ja -ennusteet yli 4000 lentoasemalta (METAR- ja TAF-raportit).

Käytössä olevat sääasemat on merkitty karttaan keltaisilla ja punaisilla pisteillä.

Aseta hiiri pisteen päälle nähdäksesi sääaseman nimen.

Klikkaa sitten nähdäksesi säähavainnot ja -ennusteet.

Kartan vaihtaminen: klikkaa mustalla rastilla varustettuja vihreitä pisteitä, niin voit zoomata sisään; viivalla varustettua vihreää pistettä, niin voit zoomata ulos tai vihreitä nuolia, niin pääset viereisille kartoille.


METAR-TAF: